createdAt,value
2017-12-04T00:01:00.501Z,1011.91
2017-12-04T00:02:09.925Z,1011.94
2017-12-04T00:03:19.358Z,1011.96
2017-12-04T00:04:29.042Z,1011.91
2017-12-04T00:05:39.178Z,1011.89
2017-12-04T00:06:49.120Z,1011.8
2017-12-04T00:07:59.053Z,1011.79
2017-12-04T00:09:08.485Z,1011.8
2017-12-04T00:10:18.440Z,1011.89
2017-12-04T00:11:28.405Z,1011.79
2017-12-04T00:12:38.102Z,1011.92
2017-12-04T00:13:48.046Z,1012.02
2017-12-04T00:14:57.995Z,1011.99
2017-12-04T00:16:07.180Z,1011.98
2017-12-04T00:17:16.621Z,1011.96
2017-12-04T00:18:26.560Z,1012.07
2017-12-04T00:19:36.508Z,1012.06
2017-12-04T00:20:46.454Z,1012.12
2017-12-04T00:21:56.130Z,1012.05
2017-12-04T00:23:05.823Z,1011.99
2017-12-04T00:24:15.500Z,1012.03
2017-12-04T00:25:25.199Z,1012.03
2017-12-04T00:26:35.143Z,1012
2017-12-04T00:27:44.846Z,1011.98
2017-12-04T00:28:54.529Z,1011.9
2017-12-04T00:30:04.475Z,1011.97
2017-12-04T00:31:13.643Z,1012.07
2017-12-04T00:32:23.327Z,1012.03
2017-12-04T00:33:33.018Z,1012
2017-12-04T00:34:42.701Z,1011.97
2017-12-04T00:35:52.639Z,1012.02
2017-12-04T00:37:02.319Z,1012.13
2017-12-04T00:38:12.269Z,1012.11
2017-12-04T00:39:21.720Z,1012.03
2017-12-04T00:40:31.407Z,1011.95
2017-12-04T00:41:41.346Z,1011.98
2017-12-04T00:42:50.778Z,1011.91
2017-12-04T00:44:00.731Z,1012.01
2017-12-04T00:45:10.681Z,1012.04
2017-12-04T00:46:20.353Z,1012.03
2017-12-04T00:47:30.306Z,1011.98
2017-12-04T00:48:39.727Z,1012.09
2017-12-04T00:49:49.405Z,1012.08
2017-12-04T00:50:59.100Z,1012.07
2017-12-04T00:52:08.809Z,1012.16
2017-12-04T00:53:18.752Z,1012.14
2017-12-04T00:54:27.917Z,1012.01
2017-12-04T00:55:37.355Z,1012.08
2017-12-04T00:56:46.784Z,1012.13
2017-12-04T00:57:56.482Z,1012.13
2017-12-04T00:59:06.427Z,1012.07
2017-12-04T01:00:16.374Z,1012.13
2017-12-04T01:01:26.067Z,1012.12
2017-12-04T01:02:36.008Z,1012.25
2017-12-04T01:03:45.967Z,1012.19
2017-12-04T01:04:55.674Z,1012.27
2017-12-04T01:06:05.619Z,1012.32
2017-12-04T01:07:15.049Z,1012.23
2017-12-04T01:08:24.989Z,1012.23
2017-12-04T01:09:34.929Z,1012.28
2017-12-04T01:10:44.621Z,1012.24
2017-12-04T01:11:54.592Z,1012.35
2017-12-04T01:13:04.538Z,1012.44
2017-12-04T01:14:14.221Z,1012.31
2017-12-04T01:15:23.918Z,1012.36
2017-12-04T01:16:33.861Z,1012.4
2017-12-04T01:17:43.554Z,1012.35
2017-12-04T01:18:53.264Z,1012.43
2017-12-04T01:20:03.209Z,1012.35
2017-12-04T01:21:12.392Z,1012.35
2017-12-04T01:22:22.090Z,1012.29
2017-12-04T01:23:32.024Z,1012.36
2017-12-04T01:24:41.967Z,1012.34
2017-12-04T01:25:51.695Z,1012.38
2017-12-04T01:27:01.092Z,1012.31
2017-12-04T01:28:10.517Z,1012.34
2017-12-04T01:29:20.206Z,1012.28
2017-12-04T01:30:30.152Z,1012.29
2017-12-04T01:31:40.115Z,1012.35
2017-12-04T01:32:50.059Z,1012.47
2017-12-04T01:34:00.006Z,1012.34
2017-12-04T01:35:09.958Z,1012.26
2017-12-04T01:36:19.921Z,1012.33
2017-12-04T01:37:29.657Z,1012.27
2017-12-04T01:38:39.599Z,1012.28
2017-12-04T01:39:49.026Z,1012.4
2017-12-04T01:40:58.975Z,1012.26
2017-12-04T01:42:08.908Z,1012.27
2017-12-04T01:43:18.849Z,1012.28
2017-12-04T01:44:28.791Z,1012.23
2017-12-04T01:45:38.748Z,1012.28
2017-12-04T01:46:48.190Z,1012.25
2017-12-04T01:47:57.874Z,1012.24
2017-12-04T01:49:07.566Z,1012.25
2017-12-04T01:50:17.508Z,1012.2
2017-12-04T01:51:26.934Z,1012.23
2017-12-04T01:52:36.618Z,1012.14
2017-12-04T01:53:46.303Z,1012.08
2017-12-04T01:54:55.736Z,1012.07
2017-12-04T01:56:05.673Z,1011.96
2017-12-04T01:57:15.356Z,1012.04
2017-12-04T01:58:25.033Z,1012.07
2017-12-04T01:59:34.979Z,1011.99
2017-12-04T02:00:44.680Z,1012.01
2017-12-04T02:01:54.361Z,1012
2017-12-04T02:03:04.062Z,1012.03
2017-12-04T02:04:14.003Z,1012.05
2017-12-04T02:05:23.432Z,1011.94
2017-12-04T02:06:33.389Z,1011.95
2017-12-04T02:07:43.070Z,1012.02
2017-12-04T02:08:53.004Z,1011.95
2017-12-04T02:10:02.955Z,1011.87
2017-12-04T02:11:12.639Z,1011.86
2017-12-04T02:12:22.581Z,1011.89
2017-12-04T02:13:32.541Z,1011.89
2017-12-04T02:14:42.496Z,1011.94
2017-12-04T02:15:51.933Z,1011.9
2017-12-04T02:17:01.367Z,1011.9
2017-12-04T02:18:11.046Z,1011.88
2017-12-04T02:19:20.742Z,1011.85
2017-12-04T02:20:30.429Z,1011.87
2017-12-04T02:21:40.384Z,1011.85
2017-12-04T02:22:50.337Z,1011.87
2017-12-04T02:24:00.254Z,1011.83
2017-12-04T02:25:10.252Z,1011.89
2017-12-04T02:26:19.995Z,1011.91
2017-12-04T02:27:29.685Z,1011.9
2017-12-04T02:28:39.361Z,1011.84
2017-12-04T02:29:48.789Z,1011.85
2017-12-04T02:30:58.532Z,1011.86
2017-12-04T02:32:08.223Z,1012.02
2017-12-04T02:33:17.903Z,1011.74
2017-12-04T02:34:27.619Z,1011.72
2017-12-04T02:35:37.582Z,1011.72
2017-12-04T02:36:47.545Z,1011.91
2017-12-04T02:37:56.968Z,1011.82
2017-12-04T02:39:06.645Z,1011.71
2017-12-04T02:40:16.585Z,1011.83
2017-12-04T02:41:26.277Z,1011.79
2017-12-04T02:42:35.962Z,1011.64
2017-12-04T02:43:45.645Z,1011.62
2017-12-04T02:44:55.584Z,1011.66
2017-12-04T02:46:05.016Z,1011.64
2017-12-04T02:47:14.967Z,1011.64
2017-12-04T02:48:24.915Z,1011.64
2017-12-04T02:49:34.346Z,1011.64
2017-12-04T02:50:44.039Z,1011.64
2017-12-04T02:51:53.988Z,1011.65
2017-12-04T02:53:03.947Z,1011.72
2017-12-04T02:54:13.126Z,1011.61
2017-12-04T02:55:22.829Z,1011.52
2017-12-04T02:56:32.774Z,1011.71
2017-12-04T02:57:42.703Z,1011.51
2017-12-04T02:58:52.628Z,1011.48
2017-12-04T03:00:02.568Z,1011.51
2017-12-04T03:01:12.003Z,1011.65
2017-12-04T03:02:21.690Z,1011.63
2017-12-04T03:03:31.385Z,1011.6
2017-12-04T03:04:40.812Z,1011.58
2017-12-04T03:05:50.493Z,1011.62
2017-12-04T03:07:00.185Z,1011.66
2017-12-04T03:08:10.190Z,1011.66
2017-12-04T03:09:19.881Z,1011.52
2017-12-04T03:10:29.571Z,1011.46
2017-12-04T03:11:39.509Z,1011.65
2017-12-04T03:12:49.519Z,1011.54
2017-12-04T03:13:58.694Z,1011.53
2017-12-04T03:15:08.644Z,1011.58
2017-12-04T03:16:17.816Z,1011.56
2017-12-04T03:17:27.766Z,1011.47
2017-12-04T03:18:37.451Z,1011.45
2017-12-04T03:19:47.134Z,1011.43
2017-12-04T03:20:56.559Z,1011.41
2017-12-04T03:22:06.510Z,1011.46
2017-12-04T03:23:16.210Z,1011.52
2017-12-04T03:24:25.648Z,1011.48
2017-12-04T03:25:34.821Z,1011.43
2017-12-04T03:26:44.769Z,1011.51
2017-12-04T03:27:54.720Z,1011.47
2017-12-04T03:29:04.151Z,1011.46
2017-12-04T03:30:13.319Z,1011.36
2017-12-04T03:31:22.777Z,1011.4
2017-12-04T03:32:32.207Z,1011.28
2017-12-04T03:33:41.884Z,1011.3
2017-12-04T03:34:51.836Z,1011.38
2017-12-04T03:36:01.531Z,1011.38
2017-12-04T03:37:11.228Z,1011.37
2017-12-04T03:38:20.682Z,1011.3
2017-12-04T03:39:30.687Z,1011.4
2017-12-04T03:40:40.433Z,1011.4
2017-12-04T03:41:50.368Z,1011.42
2017-12-04T03:43:00.057Z,1011.38
2017-12-04T03:44:09.744Z,1011.37
2017-12-04T03:45:19.428Z,1011.39
2017-12-04T03:46:29.113Z,1011.42
2017-12-04T03:47:39.055Z,1011.43
2017-12-04T03:48:48.741Z,1011.37
2017-12-04T03:49:58.421Z,1011.41
2017-12-04T03:51:08.103Z,1011.44
2017-12-04T03:52:17.819Z,1011.41
2017-12-04T03:53:27.754Z,1011.39
2017-12-04T03:54:37.444Z,1011.49
2017-12-04T03:55:47.384Z,1011.39
2017-12-04T03:56:57.319Z,1011.39
2017-12-04T03:58:07.313Z,1011.39
2017-12-04T03:59:17.257Z,1011.33
2017-12-04T04:00:26.942Z,1011.41
2017-12-04T04:01:36.619Z,1011.47
2017-12-04T04:02:46.307Z,1011.34
2017-12-04T04:03:56.253Z,1011.26
2017-12-04T04:05:06.198Z,1011.42
2017-12-04T04:06:15.983Z,1011.29
2017-12-04T04:07:25.934Z,1011.33
2017-12-04T04:08:35.368Z,1011.22
2017-12-04T04:09:45.048Z,1011.28
2017-12-04T04:10:54.993Z,1011.27
2017-12-04T04:12:04.671Z,1011.25
2017-12-04T04:13:14.612Z,1011.14
2017-12-04T04:14:24.303Z,1011.06
2017-12-04T04:15:33.994Z,1010.97
2017-12-04T04:16:43.161Z,1011.21
2017-12-04T04:17:53.107Z,1011.4
2017-12-04T04:19:03.048Z,1011.28
2017-12-04T04:20:12.230Z,1011.41
2017-12-04T04:21:21.911Z,1011.37
2017-12-04T04:22:32.072Z,1011.44
2017-12-04T04:23:42.022Z,1011.33
2017-12-04T04:24:51.967Z,1011.26
2017-12-04T04:26:01.130Z,1011.29
2017-12-04T04:27:11.080Z,1011.34
2017-12-04T04:28:21.026Z,1011.34
2017-12-04T04:29:30.967Z,1011.32
2017-12-04T04:30:40.653Z,1011.29
2017-12-04T04:31:50.601Z,1011.36
2017-12-04T04:33:00.282Z,1011.3
2017-12-04T04:34:10.230Z,1011.25
2017-12-04T04:35:19.910Z,1011.39
2017-12-04T04:36:29.335Z,1011.29
2017-12-04T04:37:39.023Z,1011.34
2017-12-04T04:38:48.971Z,1011.41
2017-12-04T04:39:58.709Z,1011.33
2017-12-04T04:41:08.400Z,1011.42
2017-12-04T04:42:17.888Z,1011.37
2017-12-04T04:43:27.579Z,1011.21
2017-12-04T04:44:37.268Z,1011.17
2017-12-04T04:45:47.222Z,1011.14
2017-12-04T04:46:56.652Z,1011.31
2017-12-04T04:48:06.357Z,1011.33
2017-12-04T04:49:16.048Z,1011.31
2017-12-04T04:50:25.997Z,1011.31
2017-12-04T04:51:35.938Z,1011.29
2017-12-04T04:52:45.913Z,1011.28
2017-12-04T04:53:55.375Z,1011.42
2017-12-04T04:55:05.055Z,1011.4
2017-12-04T04:56:15.026Z,1011.26
2017-12-04T04:57:24.972Z,1011.33
2017-12-04T04:58:34.662Z,1011.3
2017-12-04T04:59:44.350Z,1011.46
2017-12-04T05:00:54.309Z,1011.44
2017-12-04T05:02:03.995Z,1011.43
2017-12-04T05:03:13.713Z,1011.48
2017-12-04T05:04:23.395Z,1011.47
2017-12-04T05:05:33.325Z,1011.42
2017-12-04T05:06:43.280Z,1011.45
2017-12-04T05:07:52.958Z,1011.33
2017-12-04T05:09:02.644Z,1011.35
2017-12-04T05:10:12.653Z,1011.35
2017-12-04T05:11:22.592Z,1011.48
2017-12-04T05:12:32.289Z,1011.52
2017-12-04T05:13:41.982Z,1011.55
2017-12-04T05:14:51.922Z,1011.53
2017-12-04T05:16:01.858Z,1011.5
2017-12-04T05:17:11.544Z,1011.5
2017-12-04T05:18:20.975Z,1011.44
2017-12-04T05:19:30.672Z,1011.61
2017-12-04T05:20:40.613Z,1011.53
2017-12-04T05:21:50.288Z,1011.54
2017-12-04T05:22:59.977Z,1011.49
2017-12-04T05:24:09.922Z,1011.57
2017-12-04T05:25:19.612Z,1011.53
2017-12-04T05:26:29.300Z,1011.52
2017-12-04T05:27:39.243Z,1011.6
2017-12-04T05:28:48.924Z,1011.66
2017-12-04T05:29:58.617Z,1011.54
2017-12-04T05:31:08.301Z,1011.58
2017-12-04T05:32:17.983Z,1011.61
2017-12-04T05:33:27.927Z,1011.8
2017-12-04T05:34:37.352Z,1011.65
2017-12-04T05:35:47.056Z,1011.52
2017-12-04T05:36:56.487Z,1011.76
2017-12-04T05:38:06.181Z,1011.57
2017-12-04T05:39:15.878Z,1011.58
2017-12-04T05:40:25.306Z,1011.56
2017-12-04T05:41:34.732Z,1011.61
2017-12-04T05:42:44.685Z,1011.53
2017-12-04T05:43:54.646Z,1011.53
2017-12-04T05:45:04.074Z,1011.75
2017-12-04T05:46:14.017Z,1011.64
2017-12-04T05:47:23.442Z,1011.54
2017-12-04T05:48:32.617Z,1011.61
2017-12-04T05:49:42.304Z,1011.57
2017-12-04T05:50:51.749Z,1011.59
2017-12-04T05:52:01.432Z,1011.51
2017-12-04T05:53:11.117Z,1011.6
2017-12-04T05:54:20.809Z,1011.6
2017-12-04T05:55:30.766Z,1011.5
2017-12-04T05:56:40.756Z,1011.59
2017-12-04T05:57:50.716Z,1011.6
2017-12-04T05:59:00.143Z,1011.57
2017-12-04T06:00:10.097Z,1011.53
2017-12-04T06:01:20.041Z,1011.56
2017-12-04T06:02:30.016Z,1011.64
2017-12-04T06:03:39.443Z,1011.7
2017-12-04T06:04:49.421Z,1011.76
2017-12-04T06:05:59.187Z,1011.78
2017-12-04T06:07:08.633Z,1011.66
2017-12-04T06:08:18.580Z,1011.67
2017-12-04T06:09:28.523Z,1011.71
2017-12-04T06:10:38.211Z,1011.63
2017-12-04T06:11:48.177Z,1011.72
2017-12-04T06:12:57.876Z,1011.48
2017-12-04T06:14:07.839Z,1011.5
2017-12-04T06:15:17.531Z,1011.46
2017-12-04T06:16:27.471Z,1011.6
2017-12-04T06:17:37.415Z,1011.55
2017-12-04T06:18:47.119Z,1011.62
2017-12-04T06:19:57.293Z,1011.59
2017-12-04T06:21:07.232Z,1011.7
2017-12-04T06:22:16.667Z,1011.74
2017-12-04T06:23:26.598Z,1011.72
2017-12-04T06:24:36.536Z,1011.79
2017-12-04T06:25:46.480Z,1011.82
2017-12-04T06:26:55.919Z,1011.82
2017-12-04T06:28:05.867Z,1011.74
2017-12-04T06:29:15.564Z,1011.96
2017-12-04T06:30:25.250Z,1011.91
2017-12-04T06:31:35.200Z,1011.93
2017-12-04T06:32:44.646Z,1011.42
2017-12-04T06:33:54.324Z,1011.7
2017-12-04T06:35:04.012Z,1011.87
2017-12-04T06:36:13.952Z,1011.87
2017-12-04T06:37:23.888Z,1011.92
2017-12-04T06:38:33.841Z,1011.76
2017-12-04T06:39:43.541Z,1012.05
2017-12-04T06:40:53.235Z,1011.93
2017-12-04T06:42:02.662Z,1011.86
2017-12-04T06:43:12.599Z,1011.98
2017-12-04T06:44:22.027Z,1012
2017-12-04T06:45:31.723Z,1011.95
2017-12-04T06:46:41.409Z,1011.85
2017-12-04T06:47:51.095Z,1011.95
2017-12-04T06:49:01.034Z,1012.14
2017-12-04T06:50:10.725Z,1011.93
2017-12-04T06:51:20.666Z,1012.07
2017-12-04T06:52:30.626Z,1011.98
2017-12-04T06:53:40.322Z,1011.94
2017-12-04T06:54:50.280Z,1012.12
2017-12-04T06:56:00.231Z,1012.11
2017-12-04T06:57:09.909Z,1012.23
2017-12-04T06:58:19.583Z,1012.18
2017-12-04T06:59:29.274Z,1012.13
2017-12-04T07:00:38.961Z,1012.2
2017-12-04T07:01:48.646Z,1012.28
2017-12-04T07:02:58.325Z,1012.28
2017-12-04T07:04:08.009Z,1012.18
2017-12-04T07:05:17.689Z,1012.23
2017-12-04T07:06:27.172Z,1012.29
2017-12-04T07:07:36.960Z,1012.39
2017-12-04T07:08:46.899Z,1012.28
2017-12-04T07:09:56.893Z,1012.31
2017-12-04T07:11:06.603Z,1012.37
2017-12-04T07:12:16.046Z,1012.41
2017-12-04T07:13:25.735Z,1012.4
2017-12-04T07:14:35.687Z,1012.45
2017-12-04T07:15:45.129Z,1012.4
2017-12-04T07:16:54.803Z,1012.38
2017-12-04T07:18:04.494Z,1012.41
2017-12-04T07:19:13.939Z,1012.47
2017-12-04T07:20:23.641Z,1012.49
2017-12-04T07:21:33.352Z,1012.66
2017-12-04T07:22:43.055Z,1012.58
2017-12-04T07:23:52.477Z,1012.45
2017-12-04T07:25:02.418Z,1012.51
2017-12-04T07:26:12.377Z,1012.49
2017-12-04T07:27:22.321Z,1012.67
2017-12-04T07:28:32.024Z,1012.63
2017-12-04T07:29:41.974Z,1012.64
2017-12-04T07:30:51.659Z,1012.65
2017-12-04T07:32:01.086Z,1012.62
2017-12-04T07:33:10.799Z,1012.67
2017-12-04T07:34:20.750Z,1012.68
2017-12-04T07:35:30.491Z,1012.68
2017-12-04T07:36:40.438Z,1012.77
2017-12-04T07:37:50.134Z,1012.7
2017-12-04T07:39:00.084Z,1012.76
2017-12-04T07:40:09.780Z,1012.64
2017-12-04T07:41:19.736Z,1012.69
2017-12-04T07:42:29.177Z,1012.63
2017-12-04T07:43:38.858Z,1012.56
2017-12-04T07:44:48.282Z,1012.67
2017-12-04T07:45:57.487Z,1012.68
2017-12-04T07:47:07.191Z,1012.74
2017-12-04T07:48:16.618Z,1012.76
2017-12-04T07:49:26.634Z,1012.84
2017-12-04T07:50:35.819Z,1012.79
2017-12-04T07:51:45.872Z,1012.72
2017-12-04T07:52:55.568Z,1013.01
2017-12-04T07:54:05.519Z,1012.85
2017-12-04T07:55:15.227Z,1012.97
2017-12-04T07:56:25.260Z,1013.09
2017-12-04T07:57:35.272Z,1012.87
2017-12-04T07:58:44.977Z,1013.08
2017-12-04T07:59:54.930Z,1012.92
2017-12-04T08:01:05.114Z,1012.9
2017-12-04T08:02:15.058Z,1013.02
2017-12-04T08:03:25.008Z,1012.89
2017-12-04T08:04:34.711Z,1012.92
2017-12-04T08:05:44.714Z,1012.98
2017-12-04T08:06:54.159Z,1012.93
2017-12-04T08:08:03.914Z,1012.91
2017-12-04T08:09:13.591Z,1013
2017-12-04T08:10:23.290Z,1012.9
2017-12-04T08:11:32.979Z,1012.93
2017-12-04T08:12:42.673Z,1012.95
2017-12-04T08:13:51.848Z,1012.9
2017-12-04T08:15:01.549Z,1012.96
2017-12-04T08:16:11.505Z,1012.99
2017-12-04T08:17:21.453Z,1012.93
2017-12-04T08:18:31.408Z,1012.99
2017-12-04T08:19:41.105Z,1012.98
2017-12-04T08:20:51.060Z,1013
2017-12-04T08:22:00.496Z,1013
2017-12-04T08:23:10.220Z,1012.91
2017-12-04T08:24:20.158Z,1013.18
2017-12-04T08:25:29.852Z,1013.02
2017-12-04T08:26:39.802Z,1013.07
2017-12-04T08:27:49.522Z,1013.23
2017-12-04T08:28:59.210Z,1013.17
2017-12-04T08:30:08.899Z,1013.15
2017-12-04T08:31:18.339Z,1013.08
2017-12-04T08:32:27.797Z,1013.1
2017-12-04T08:33:37.496Z,1013.11
2017-12-04T08:34:47.461Z,1013.19
2017-12-04T08:35:57.418Z,1013.06
2017-12-04T08:37:07.113Z,1013.15
2017-12-04T08:38:17.064Z,1013.12
2017-12-04T08:39:27.015Z,1013.11
2017-12-04T08:40:36.716Z,1013.06
2017-12-04T08:41:46.405Z,1013.09
2017-12-04T08:42:56.367Z,1013.14
2017-12-04T08:44:06.082Z,1013.2
2017-12-04T08:45:15.775Z,1013.22
2017-12-04T08:46:25.502Z,1013.24
2017-12-04T08:47:35.208Z,1013.17
2017-12-04T08:48:44.910Z,1013.44
2017-12-04T08:49:54.591Z,1013.27
2017-12-04T08:51:03.776Z,1013.28
2017-12-04T08:52:13.541Z,1013.36
2017-12-04T08:53:22.997Z,1013.26
2017-12-04T08:54:32.701Z,1013.31
2017-12-04T08:55:42.151Z,1013.27
2017-12-04T08:56:52.135Z,1013.3
2017-12-04T08:58:01.567Z,1013.36
2017-12-04T08:59:11.010Z,1013.36
2017-12-04T09:00:20.518Z,1013.38
2017-12-04T09:01:30.486Z,1013.43
2017-12-04T09:02:40.169Z,1013.4
2017-12-04T09:03:49.859Z,1013.5
2017-12-04T09:04:59.291Z,1013.51
2017-12-04T09:06:08.728Z,1013.49
2017-12-04T09:07:18.430Z,1013.48
2017-12-04T09:08:28.386Z,1013.45
2017-12-04T09:09:38.125Z,1013.47
2017-12-04T09:10:48.069Z,1013.56
2017-12-04T09:11:57.777Z,1013.56
2017-12-04T09:13:07.490Z,1013.47
2017-12-04T09:14:17.442Z,1013.5
2017-12-04T09:15:27.399Z,1013.67
2017-12-04T09:16:37.098Z,1013.61
2017-12-04T09:17:47.070Z,1013.53
2017-12-04T09:18:56.761Z,1013.65
2017-12-04T09:20:06.768Z,1013.65
2017-12-04T09:21:16.738Z,1013.51
2017-12-04T09:22:26.169Z,1013.45
2017-12-04T09:23:35.615Z,1013.47
2017-12-04T09:24:45.310Z,1013.5
2017-12-04T09:25:55.266Z,1013.53
2017-12-04T09:27:05.319Z,1013.38
2017-12-04T09:28:14.864Z,1013.44
2017-12-04T09:29:24.555Z,1013.36
2017-12-04T09:30:34.535Z,1013.42
2017-12-04T09:31:44.245Z,1013.4
2017-12-04T09:32:54.281Z,1013.46
2017-12-04T09:34:03.988Z,1013.61
2017-12-04T09:35:13.434Z,1013.44
2017-12-04T09:36:23.156Z,1013.67
2017-12-04T09:37:33.131Z,1013.49
2017-12-04T09:38:43.083Z,1013.5
2017-12-04T09:39:52.516Z,1013.64
2017-12-04T09:41:02.488Z,1013.56
2017-12-04T09:42:12.462Z,1013.46
2017-12-04T09:43:21.902Z,1013.59
2017-12-04T09:44:31.865Z,1013.54
2017-12-04T09:45:41.304Z,1013.61
2017-12-04T09:46:50.998Z,1013.48
2017-12-04T09:48:00.700Z,1013.55
2017-12-04T09:49:10.391Z,1013.59
2017-12-04T09:50:20.076Z,1013.51
2017-12-04T09:51:29.774Z,1013.46
2017-12-04T09:52:39.203Z,1013.7
2017-12-04T09:53:48.637Z,1013.52
2017-12-04T09:54:58.332Z,1013.59
2017-12-04T09:56:08.018Z,1013.61
2017-12-04T09:57:16.682Z,1013.67
2017-12-04T09:58:26.366Z,1013.78
2017-12-04T09:59:36.322Z,1013.7
2017-12-04T10:00:46.283Z,1013.86
2017-12-04T10:01:56.482Z,1014.06
2017-12-04T10:03:06.440Z,1013.92
2017-12-04T10:04:16.142Z,1014
2017-12-04T10:05:25.312Z,1013.91
2017-12-04T10:06:34.754Z,1013.88
2017-12-04T10:07:44.439Z,1013.87
2017-12-04T10:08:54.129Z,1013.87
2017-12-04T10:10:04.099Z,1013.91
2017-12-04T10:11:14.045Z,1013.77
2017-12-04T10:12:24.104Z,1013.91
2017-12-04T10:13:34.075Z,1013.75
2017-12-04T10:14:43.769Z,1013.74
2017-12-04T10:15:53.757Z,1013.79
2017-12-04T10:17:03.725Z,1013.8
2017-12-04T10:18:13.426Z,1013.74
2017-12-04T10:19:23.390Z,1013.92
2017-12-04T10:20:32.830Z,1013.8
2017-12-04T10:21:42.801Z,1013.76
2017-12-04T10:22:52.242Z,1013.85
2017-12-04T10:24:02.465Z,1013.9
2017-12-04T10:25:12.415Z,1013.84
2017-12-04T10:26:21.866Z,1013.86
2017-12-04T10:27:31.566Z,1013.86
2017-12-04T10:28:41.261Z,1013.84
2017-12-04T10:29:50.748Z,1013.8
2017-12-04T10:31:00.699Z,1013.82
2017-12-04T10:32:10.410Z,1013.81
2017-12-04T10:33:19.328Z,1013.77
2017-12-04T10:34:29.027Z,1013.85
2017-12-04T10:35:38.714Z,1013.85
2017-12-04T10:36:48.423Z,1013.78
2017-12-04T10:39:23.228Z,1013.83
2017-12-04T10:40:33.609Z,1013.79
2017-12-04T10:41:43.330Z,1013.84
2017-12-04T10:42:53.301Z,1013.87
2017-12-04T10:44:02.990Z,1013.86
2017-12-04T10:45:12.957Z,1013.91
2017-12-04T10:46:22.924Z,1013.92
2017-12-04T10:47:32.529Z,1013.88
2017-12-04T10:48:42.248Z,1013.86
2017-12-04T10:49:52.026Z,1013.85
2017-12-04T10:51:01.220Z,1013.86
2017-12-04T10:52:10.658Z,1013.87
2017-12-04T10:53:20.369Z,1013.86
2017-12-04T10:54:29.804Z,1013.88
2017-12-04T10:55:39.255Z,1013.97
2017-12-04T10:56:48.705Z,1013.97
2017-12-04T10:57:58.686Z,1014.03
2017-12-04T10:59:08.145Z,1014.01
2017-12-04T11:00:18.100Z,1013.98
2017-12-04T11:01:27.907Z,1013.96
2017-12-04T11:02:37.885Z,1014
2017-12-04T11:03:47.832Z,1014.02
2017-12-04T11:04:57.793Z,1014.09
2017-12-04T11:06:07.519Z,1013.96
2017-12-04T11:07:16.978Z,1014.13
2017-12-04T11:08:26.947Z,1014.08
2017-12-04T11:09:36.918Z,1014.03
2017-12-04T11:10:46.633Z,1014.03
2017-12-04T11:11:56.397Z,1014.02
2017-12-04T11:13:06.216Z,1014.03
2017-12-04T11:14:16.197Z,1013.96
2017-12-04T11:15:25.651Z,1014.01
2017-12-04T11:16:35.615Z,1014.05
2017-12-04T11:17:45.086Z,1014.03
2017-12-04T11:18:54.300Z,1014.02
2017-12-04T11:20:04.290Z,1014.11
2017-12-04T11:21:13.742Z,1014.12
2017-12-04T11:22:23.190Z,1014.11
2017-12-04T11:23:32.899Z,1014.14
2017-12-04T11:24:42.852Z,1014.16
2017-12-04T11:25:52.546Z,1014.16
2017-12-04T11:27:02.014Z,1014.16
2017-12-04T11:28:11.758Z,1014.21
2017-12-04T11:29:21.749Z,1014.26
2017-12-04T11:30:31.704Z,1014.17
2017-12-04T11:31:41.417Z,1014.13
2017-12-04T11:32:51.432Z,1014.19
2017-12-04T11:34:01.403Z,1014.14
2017-12-04T11:35:11.373Z,1014.24
2017-12-04T11:36:20.849Z,1014.13
2017-12-04T11:37:30.308Z,1014.2
2017-12-04T11:38:40.023Z,1014.19
2017-12-04T11:39:49.721Z,1014.24
2017-12-04T11:40:59.676Z,1014.29
2017-12-04T11:42:09.390Z,1014.13
2017-12-04T11:43:19.097Z,1014.22
2017-12-04T11:44:29.125Z,1014.2
2017-12-04T11:45:38.882Z,1014.26
2017-12-04T11:46:48.846Z,1014.24
2017-12-04T11:47:58.825Z,1014.22
2017-12-04T11:49:08.791Z,1014.28
2017-12-04T11:50:18.507Z,1014.31
2017-12-04T11:51:28.482Z,1014.25
2017-12-04T11:52:38.196Z,1014.34
2017-12-04T11:53:47.905Z,1014.29
2017-12-04T11:54:57.875Z,1014.41
2017-12-04T11:56:07.645Z,1014.51
2017-12-04T11:57:17.613Z,1014.46
2017-12-04T11:58:27.564Z,1014.44
2017-12-04T11:59:37.305Z,1014.49
2017-12-04T12:00:47.025Z,1014.45
2017-12-04T12:01:57.012Z,1014.52
2017-12-04T12:03:06.700Z,1014.49
2017-12-04T12:04:16.154Z,1014.63
2017-12-04T12:05:26.118Z,1014.49
2017-12-04T12:06:35.292Z,1014.55
2017-12-04T12:07:44.991Z,1014.55
2017-12-04T12:08:54.691Z,1014.54
2017-12-04T12:10:04.883Z,1014.57
2017-12-04T12:11:14.596Z,1014.53
2017-12-04T12:12:24.188Z,1014.52
2017-12-04T12:13:34.274Z,1014.55
2017-12-04T12:14:44.488Z,1014.64
2017-12-04T12:15:54.493Z,1014.6
2017-12-04T12:17:04.204Z,1014.58
2017-12-04T12:18:13.659Z,1014.54
2017-12-04T12:19:23.374Z,1014.59
2017-12-04T12:20:33.083Z,1014.72
2017-12-04T12:21:43.128Z,1014.62
2017-12-04T12:22:53.075Z,1014.66
2017-12-04T12:24:02.515Z,1014.67
2017-12-04T12:25:12.478Z,1014.67
2017-12-04T12:26:21.971Z,1014.71
2017-12-04T12:27:31.678Z,1014.65
2017-12-04T12:28:41.627Z,1014.73
2017-12-04T12:29:51.067Z,1014.72
2017-12-04T12:31:00.788Z,1014.72
2017-12-04T12:32:10.250Z,1014.76
2017-12-04T12:33:19.951Z,1014.73
2017-12-04T12:34:29.950Z,1014.68
2017-12-04T12:35:39.943Z,1014.74
2017-12-04T12:36:49.947Z,1014.76
2017-12-04T12:37:59.653Z,1014.71
2017-12-04T12:39:09.592Z,1014.76
2017-12-04T12:40:19.307Z,1014.81
2017-12-04T12:41:29.006Z,1014.82
2017-12-04T12:42:38.730Z,1014.81
2017-12-04T12:43:48.438Z,1014.78
2017-12-04T12:44:58.426Z,1014.82
2017-12-04T12:46:08.391Z,1014.74
2017-12-04T12:47:18.350Z,1014.77
2017-12-04T12:48:28.065Z,1014.8
2017-12-04T12:49:37.810Z,1014.83
2017-12-04T12:50:47.766Z,1014.88
2017-12-04T12:51:57.461Z,1014.79
2017-12-04T12:53:06.899Z,1014.86
2017-12-04T12:54:16.864Z,1014.94
2017-12-04T12:55:26.830Z,1014.92
2017-12-04T12:56:36.278Z,1014.91
2017-12-04T12:57:46.230Z,1014.86
2017-12-04T12:58:55.952Z,1015.02
2017-12-04T13:00:05.672Z,1014.96
2017-12-04T13:01:15.382Z,1014.98
2017-12-04T13:02:25.095Z,1014.95
2017-12-04T13:03:34.791Z,1014.97
2017-12-04T13:04:44.742Z,1015.08
2017-12-04T13:05:54.453Z,1015.03
2017-12-04T13:07:03.898Z,1015.14
2017-12-04T13:08:13.332Z,1015.19
2017-12-04T13:09:23.306Z,1015.08
2017-12-04T13:10:33.257Z,1015.1
2017-12-04T13:11:42.966Z,1015.18
2017-12-04T13:12:52.918Z,1015.15
2017-12-04T13:14:02.882Z,1015.22
2017-12-04T13:15:12.859Z,1015.17
2017-12-04T13:16:22.035Z,1015.19
2017-12-04T13:17:32.009Z,1015.17
2017-12-04T13:18:41.442Z,1015.23
2017-12-04T13:19:51.402Z,1015.26
2017-12-04T13:21:00.324Z,1015.18
2017-12-04T13:22:09.751Z,1015.16
2017-12-04T13:23:19.728Z,1015.23
2017-12-04T13:24:28.897Z,1015.22
2017-12-04T13:25:38.584Z,1015.26
2017-12-04T13:26:48.547Z,1015.28
2017-12-04T13:27:58.233Z,1015.25
2017-12-04T13:29:07.947Z,1015.23
2017-12-04T13:30:17.898Z,1015.26
2017-12-04T13:31:27.840Z,1015.3
2017-12-04T13:32:37.913Z,1015.3
2017-12-04T13:33:47.349Z,1015.3
2017-12-04T13:34:57.050Z,1015.29
2017-12-04T13:36:06.241Z,1015.29
2017-12-04T13:37:15.970Z,1015.34
2017-12-04T13:38:25.917Z,1015.25
2017-12-04T13:39:35.868Z,1015.3
2017-12-04T13:40:45.304Z,1015.36
2017-12-04T13:41:55.249Z,1015.33
2017-12-04T13:43:04.956Z,1015.34
2017-12-04T13:44:14.921Z,1015.45
2017-12-04T13:45:24.362Z,1015.4
2017-12-04T13:46:34.309Z,1015.41
2017-12-04T13:47:43.490Z,1015.45
2017-12-04T13:48:53.434Z,1015.42
2017-12-04T13:50:03.127Z,1015.39
2017-12-04T13:51:12.572Z,1015.4
2017-12-04T13:52:22.295Z,1015.36
2017-12-04T13:53:32.010Z,1015.39
2017-12-04T13:54:41.453Z,1015.49
2017-12-04T13:55:51.160Z,1015.47
2017-12-04T13:57:00.596Z,1015.5
2017-12-04T13:58:10.332Z,1015.57
2017-12-04T13:59:20.327Z,1015.56
2017-12-04T14:00:30.063Z,1015.55
2017-12-04T14:01:40.037Z,1015.48
2017-12-04T14:02:50.052Z,1015.56
2017-12-04T14:03:59.495Z,1015.53
2017-12-04T14:05:09.264Z,1015.66
2017-12-04T14:06:19.452Z,1015.6
2017-12-04T14:07:29.421Z,1015.66
2017-12-04T14:08:39.113Z,1015.7